Метеостанция


АнтоновUKKM 100300Z AUTO VRB01MPS 9999 VCSH BKN060CB 18/18 Q1016
БориспольUKBB 100300Z 34005MPS 9999 -SHRA SCT040CB 18/16 Q1016 R36R/290050 NOSIG
Гаврышовка (Винница)UKWW 100300Z 34003MPS CAVOK 15/13 Q1017 NOSIG
ДнепропетровскUKDD 100300Z 01003MPS CAVOK 19/14 Q1014 R08/090070 NOSIG
ЖуляныUKKK 100300Z 06003MPS CAVOK 20/15 Q1016 R08/CLRD70 TEMPO -SHRA SCT015CB
Запорожье(Мокрая)UKDE 100300Z 33002MPS CAVOK 17/12 Q1013 R02R/090070 NOSIG
Ивано-ФранковскUKLI 100300Z 00000MPS 9999 3800N BCFG SCT046 18/17 Q1018 NOSIG
Кривой РогUKDR 100300Z 01003MPS CAVOK 17/11 Q1014 R36/09//70 NOSIG
ЛьвовUKLL 100300Z 00000MPS CAVOK 15/14 Q1018 R31/CLRD// NOSIG
НиколаевUKON 100300Z 02003MPS CAVOK 19/13 Q1013 R04/090075 NOSIG
ОдессаUKOO 100300Z 03003MPS CAVOK 23/12 Q1013 R34/090060 NOSIG
РовноUKLR 100300Z 00000MPS 1200 BR NSC 13/13 Q1018 NOSIG
УжгородUKLU 091500Z 00000MPS 9999 NSC 30/17 Q1015 R10/090070 NOSIG
ХарьковUKHH 100300Z 35003MPS CAVOK 18/14 Q1014 R07/0///81 NOSIG
Черновцы
Скачать:
Скачать этот файл (Metar_шпаргалка.jpg)Расшифровка METAR[ ]4799 Кб
Вся информация, которая имеется в использовании на сайте и доступная для скачивания, получена исключительно из открытых источников информации сети Интернет, всякое совпадение с данными, имеющими ограничения в доступе, случайное и не является преднамеренным.
^ Наверх